sensor_id;sensor_type;location;lat;lon;timestamp;P1;durP1;ratioP1;P2;durP2;ratioP2
65202;SDS011;51788;45.124;38.966;2023-09-19T00:01:34;7.55;;;6.63;;
65202;SDS011;51788;45.124;38.966;2023-09-19T00:04:01;10.27;;;7.10;;
65202;SDS011;51788;45.124;38.966;2023-09-19T00:06:28;8.60;;;6.35;;
65202;SDS011;51788;45.124;38.966;2023-09-19T00:08:57;13.23;;;7.28;;
65202;SDS011;51788;45.124;38.966;2023-09-19T00:11:28;15.17;;;7.63;;
65202;SDS011;51788;45.124;38.966;2023-09-19T00:13:54;33.30;;;8.77;;
65202;SDS011;51788;45.124;38.966;2023-09-19T00:16:20;18.00;;;7.55;;
65202;SDS011;51788;45.124;38.966;2023-09-19T00:18:46;7.65;;;6.82;;
65202;SDS011;51788;45.124;38.966;2023-09-19T00:21:14;8.48;;;7.70;;
65202;SDS011;51788;45.124;38.966;2023-09-19T00:23:40;7.93;;;7.13;;
65202;SDS011;51788;45.124;38.966;2023-09-19T00:26:07;9.27;;;7.43;;
65202;SDS011;51788;45.124;38.966;2023-09-19T00:28:33;8.13;;;7.07;;
65202;SDS011;51788;45.124;38.966;2023-09-19T00:31:00;9.70;;;8.48;;
65202;SDS011;51788;45.124;38.966;2023-09-19T00:33:27;30.35;;;17.08;;
65202;SDS011;51788;45.124;38.966;2023-09-19T00:35:54;42.83;;;22.70;;
65202;SDS011;51788;45.124;38.966;2023-09-19T00:38:23;37.85;;;18.85;;
65202;SDS011;51788;45.124;38.966;2023-09-19T00:40:52;24.73;;;15.10;;
65202;SDS011;51788;45.124;38.966;2023-09-19T00:43:20;11.73;;;8.32;;
65202;SDS011;51788;45.124;38.966;2023-09-19T00:45:47;13.98;;;6.88;;
65202;SDS011;51788;45.124;38.966;2023-09-19T00:48:17;15.20;;;7.15;;
65202;SDS011;51788;45.124;38.966;2023-09-19T00:50:45;11.45;;;7.55;;
65202;SDS011;51788;45.124;38.966;2023-09-19T00:53:15;18.67;;;8.68;;
65202;SDS011;51788;45.124;38.966;2023-09-19T00:55:46;14.93;;;11.38;;
65202;SDS011;51788;45.124;38.966;2023-09-19T00:58:13;10.52;;;8.98;;
65202;SDS011;51788;45.124;38.966;2023-09-19T01:00:40;8.80;;;7.75;;
65202;SDS011;51788;45.124;38.966;2023-09-19T01:03:06;10.15;;;8.20;;
65202;SDS011;51788;45.124;38.966;2023-09-19T01:05:35;12.25;;;7.72;;
65202;SDS011;51788;45.124;38.966;2023-09-19T01:08:02;10.43;;;7.35;;
65202;SDS011;51788;45.124;38.966;2023-09-19T01:10:29;10.65;;;6.95;;
65202;SDS011;51788;45.124;38.966;2023-09-19T01:20:39;10.35;;;7.05;;
65202;SDS011;51788;45.124;38.966;2023-09-19T01:28:43;9.85;;;7.18;;
65202;SDS011;51788;45.124;38.966;2023-09-19T01:31:19;14.02;;;6.80;;
65202;SDS011;51788;45.124;38.966;2023-09-19T01:33:55;8.68;;;7.43;;
65202;SDS011;51788;45.124;38.966;2023-09-19T01:36:27;15.63;;;8.30;;
65202;SDS011;51788;45.124;38.966;2023-09-19T01:39:00;12.25;;;7.50;;
65202;SDS011;51788;45.124;38.966;2023-09-19T01:44:09;7.90;;;6.82;;
65202;SDS011;51788;45.124;38.966;2023-09-19T01:46:43;9.05;;;7.38;;
65202;SDS011;51788;45.124;38.966;2023-09-19T01:49:22;11.57;;;8.10;;
65202;SDS011;51788;45.124;38.966;2023-09-19T01:52:04;10.68;;;8.50;;
65202;SDS011;51788;45.124;38.966;2023-09-19T01:54:46;15.30;;;9.07;;
65202;SDS011;51788;45.124;38.966;2023-09-19T02:00:06;13.07;;;9.15;;
65202;SDS011;51788;45.124;38.966;2023-09-19T02:02:44;13.07;;;9.07;;
65202;SDS011;51788;45.124;38.966;2023-09-19T02:05:13;13.90;;;8.00;;
65202;SDS011;51788;45.124;38.966;2023-09-19T02:07:48;8.65;;;7.72;;
65202;SDS011;51788;45.124;38.966;2023-09-19T02:10:15;10.43;;;8.05;;
65202;SDS011;51788;45.124;38.966;2023-09-19T02:12:42;10.48;;;7.65;;
65202;SDS011;51788;45.124;38.966;2023-09-19T02:15:08;10.68;;;7.97;;
65202;SDS011;51788;45.124;38.966;2023-09-19T02:17:34;9.60;;;7.80;;
65202;SDS011;51788;45.124;38.966;2023-09-19T02:20:01;9.35;;;7.35;;
65202;SDS011;51788;45.124;38.966;2023-09-19T02:22:29;12.15;;;7.93;;
65202;SDS011;51788;45.124;38.966;2023-09-19T02:24:55;14.98;;;7.85;;
65202;SDS011;51788;45.124;38.966;2023-09-19T02:27:24;14.88;;;7.55;;
65202;SDS011;51788;45.124;38.966;2023-09-19T02:29:50;12.05;;;8.32;;
65202;SDS011;51788;45.124;38.966;2023-09-19T02:32:17;12.70;;;8.13;;
65202;SDS011;51788;45.124;38.966;2023-09-19T02:34:43;15.70;;;9.10;;
65202;SDS011;51788;45.124;38.966;2023-09-19T02:37:10;11.73;;;7.88;;
65202;SDS011;51788;45.124;38.966;2023-09-19T02:39:36;10.73;;;8.75;;
65202;SDS011;51788;45.124;38.966;2023-09-19T02:42:02;11.07;;;8.10;;
65202;SDS011;51788;45.124;38.966;2023-09-19T02:44:29;22.70;;;8.95;;
65202;SDS011;51788;45.124;38.966;2023-09-19T02:46:55;12.50;;;8.57;;
65202;SDS011;51788;45.124;38.966;2023-09-19T02:49:22;13.50;;;7.88;;
65202;SDS011;51788;45.124;38.966;2023-09-19T02:51:48;17.15;;;8.82;;
65202;SDS011;51788;45.124;38.966;2023-09-19T02:54:14;12.45;;;8.40;;
65202;SDS011;51788;45.124;38.966;2023-09-19T02:56:44;10.23;;;8.57;;
65202;SDS011;51788;45.124;38.966;2023-09-19T02:59:12;16.60;;;8.40;;
65202;SDS011;51788;45.124;38.966;2023-09-19T03:01:38;14.85;;;7.75;;
65202;SDS011;51788;45.124;38.966;2023-09-19T03:04:04;12.57;;;8.15;;
65202;SDS011;51788;45.124;38.966;2023-09-19T03:06:34;18.40;;;8.30;;
65202;SDS011;51788;45.124;38.966;2023-09-19T03:09:00;10.30;;;8.60;;
65202;SDS011;51788;45.124;38.966;2023-09-19T03:11:28;13.45;;;9.15;;
65202;SDS011;51788;45.124;38.966;2023-09-19T03:13:56;16.55;;;10.00;;
65202;SDS011;51788;45.124;38.966;2023-09-19T03:16:24;19.42;;;8.40;;
65202;SDS011;51788;45.124;38.966;2023-09-19T03:18:54;19.25;;;10.05;;
65202;SDS011;51788;45.124;38.966;2023-09-19T03:21:22;13.30;;;8.68;;
65202;SDS011;51788;45.124;38.966;2023-09-19T03:23:48;15.50;;;8.98;;
65202;SDS011;51788;45.124;38.966;2023-09-19T03:26:14;16.60;;;8.68;;
65202;SDS011;51788;45.124;38.966;2023-09-19T03:28:41;11.98;;;8.95;;
65202;SDS011;51788;45.124;38.966;2023-09-19T03:31:09;15.63;;;9.45;;
65202;SDS011;51788;45.124;38.966;2023-09-19T03:33:36;12.32;;;8.80;;
65202;SDS011;51788;45.124;38.966;2023-09-19T03:36:03;34.60;;;10.27;;
65202;SDS011;51788;45.124;38.966;2023-09-19T03:38:30;21.08;;;9.23;;
65202;SDS011;51788;45.124;38.966;2023-09-19T03:40:57;20.90;;;11.50;;
65202;SDS011;51788;45.124;38.966;2023-09-19T03:43:24;13.15;;;8.80;;
65202;SDS011;51788;45.124;38.966;2023-09-19T03:45:51;23.17;;;10.18;;
65202;SDS011;51788;45.124;38.966;2023-09-19T03:48:19;23.65;;;10.20;;
65202;SDS011;51788;45.124;38.966;2023-09-19T03:50:47;24.00;;;10.13;;
65202;SDS011;51788;45.124;38.966;2023-09-19T03:53:14;26.23;;;10.55;;
65202;SDS011;51788;45.124;38.966;2023-09-19T03:55:40;16.05;;;9.95;;
65202;SDS011;51788;45.124;38.966;2023-09-19T03:58:07;24.75;;;10.38;;
65202;SDS011;51788;45.124;38.966;2023-09-19T04:00:33;24.98;;;9.98;;
65202;SDS011;51788;45.124;38.966;2023-09-19T04:03:00;31.88;;;9.82;;
65202;SDS011;51788;45.124;38.966;2023-09-19T04:05:31;15.85;;;9.38;;
65202;SDS011;51788;45.124;38.966;2023-09-19T04:07:57;21.83;;;10.15;;
65202;SDS011;51788;45.124;38.966;2023-09-19T04:10:23;36.83;;;10.75;;
65202;SDS011;51788;45.124;38.966;2023-09-19T04:12:55;13.30;;;9.70;;
65202;SDS011;51788;45.124;38.966;2023-09-19T04:15:22;24.25;;;10.45;;
65202;SDS011;51788;45.124;38.966;2023-09-19T04:17:50;22.38;;;9.80;;
65202;SDS011;51788;45.124;38.966;2023-09-19T04:20:17;14.57;;;9.77;;
65202;SDS011;51788;45.124;38.966;2023-09-19T04:22:45;21.48;;;9.10;;
65202;SDS011;51788;45.124;38.966;2023-09-19T04:25:12;15.25;;;10.60;;
65202;SDS011;51788;45.124;38.966;2023-09-19T04:27:39;20.08;;;9.68;;
65202;SDS011;51788;45.124;38.966;2023-09-19T04:30:06;18.42;;;9.80;;
65202;SDS011;51788;45.124;38.966;2023-09-19T04:32:37;23.10;;;10.07;;
65202;SDS011;51788;45.124;38.966;2023-09-19T04:35:07;21.08;;;9.48;;
65202;SDS011;51788;45.124;38.966;2023-09-19T04:37:37;15.93;;;9.00;;
65202;SDS011;51788;45.124;38.966;2023-09-19T04:40:05;28.23;;;9.73;;
65202;SDS011;51788;45.124;38.966;2023-09-19T04:42:39;24.40;;;9.80;;
65202;SDS011;51788;45.124;38.966;2023-09-19T04:45:06;15.75;;;10.00;;
65202;SDS011;51788;45.124;38.966;2023-09-19T04:47:32;18.25;;;9.85;;
65202;SDS011;51788;45.124;38.966;2023-09-19T04:49:58;20.73;;;10.02;;
65202;SDS011;51788;45.124;38.966;2023-09-19T04:52:24;28.02;;;10.75;;
65202;SDS011;51788;45.124;38.966;2023-09-19T04:54:50;11.98;;;8.63;;
65202;SDS011;51788;45.124;38.966;2023-09-19T04:57:16;33.05;;;9.82;;
65202;SDS011;51788;45.124;38.966;2023-09-19T04:59:42;18.65;;;8.63;;
65202;SDS011;51788;45.124;38.966;2023-09-19T05:02:09;21.98;;;9.30;;
65202;SDS011;51788;45.124;38.966;2023-09-19T05:04:35;12.40;;;8.65;;
65202;SDS011;51788;45.124;38.966;2023-09-19T05:07:01;21.42;;;9.98;;
65202;SDS011;51788;45.124;38.966;2023-09-19T05:09:28;19.08;;;7.68;;
65202;SDS011;51788;45.124;38.966;2023-09-19T05:11:54;14.95;;;8.95;;
65202;SDS011;51788;45.124;38.966;2023-09-19T05:14:21;16.48;;;8.23;;
65202;SDS011;51788;45.124;38.966;2023-09-19T05:16:48;12.40;;;8.20;;
65202;SDS011;51788;45.124;38.966;2023-09-19T05:19:14;14.65;;;7.93;;
65202;SDS011;51788;45.124;38.966;2023-09-19T05:21:40;8.77;;;7.88;;
65202;SDS011;51788;45.124;38.966;2023-09-19T05:24:06;12.07;;;7.28;;
65202;SDS011;51788;45.124;38.966;2023-09-19T05:26:32;16.88;;;7.55;;
65202;SDS011;51788;45.124;38.966;2023-09-19T05:28:58;15.38;;;7.90;;
65202;SDS011;51788;45.124;38.966;2023-09-19T05:31:24;15.05;;;7.72;;
65202;SDS011;51788;45.124;38.966;2023-09-19T05:33:51;12.38;;;7.25;;
65202;SDS011;51788;45.124;38.966;2023-09-19T05:36:18;9.40;;;6.00;;
65202;SDS011;51788;45.124;38.966;2023-09-19T05:38:44;8.30;;;7.43;;
65202;SDS011;51788;45.124;38.966;2023-09-19T05:41:10;15.38;;;6.95;;
65202;SDS011;51788;45.124;38.966;2023-09-19T05:43:39;15.80;;;6.78;;
65202;SDS011;51788;45.124;38.966;2023-09-19T05:46:06;13.00;;;7.10;;
65202;SDS011;51788;45.124;38.966;2023-09-19T05:48:33;11.68;;;5.85;;
65202;SDS011;51788;45.124;38.966;2023-09-19T05:50:59;11.07;;;5.80;;
65202;SDS011;51788;45.124;38.966;2023-09-19T05:53:26;13.13;;;5.93;;
65202;SDS011;51788;45.124;38.966;2023-09-19T05:55:53;7.05;;;5.28;;
65202;SDS011;51788;45.124;38.966;2023-09-19T05:58:20;10.88;;;5.68;;
65202;SDS011;51788;45.124;38.966;2023-09-19T06:00:46;10.55;;;5.80;;
65202;SDS011;51788;45.124;38.966;2023-09-19T06:03:14;19.08;;;5.50;;
65202;SDS011;51788;45.124;38.966;2023-09-19T06:05:41;20.38;;;5.15;;
65202;SDS011;51788;45.124;38.966;2023-09-19T06:08:07;9.98;;;5.47;;
65202;SDS011;51788;45.124;38.966;2023-09-19T06:10:33;9.65;;;4.80;;
65202;SDS011;51788;45.124;38.966;2023-09-19T06:13:03;8.43;;;4.80;;
65202;SDS011;51788;45.124;38.966;2023-09-19T06:15:31;7.32;;;4.55;;
65202;SDS011;51788;45.124;38.966;2023-09-19T06:17:58;7.43;;;4.38;;
65202;SDS011;51788;45.124;38.966;2023-09-19T06:20:27;6.88;;;4.75;;
65202;SDS011;51788;45.124;38.966;2023-09-19T06:22:54;12.60;;;5.93;;
65202;SDS011;51788;45.124;38.966;2023-09-19T06:25:20;8.90;;;4.72;;
65202;SDS011;51788;45.124;38.966;2023-09-19T06:30:20;5.63;;;3.83;;
65202;SDS011;51788;45.124;38.966;2023-09-19T06:32:49;18.42;;;3.97;;
65202;SDS011;51788;45.124;38.966;2023-09-19T06:35:15;13.95;;;4.10;;
65202;SDS011;51788;45.124;38.966;2023-09-19T06:37:42;5.45;;;3.30;;
65202;SDS011;51788;45.124;38.966;2023-09-19T06:40:12;5.35;;;3.67;;
65202;SDS011;51788;45.124;38.966;2023-09-19T06:42:40;4.57;;;3.58;;
65202;SDS011;51788;45.124;38.966;2023-09-19T06:45:13;20.60;;;14.10;;
65202;SDS011;51788;45.124;38.966;2023-09-19T06:47:43;7.28;;;6.57;;
65202;SDS011;51788;45.124;38.966;2023-09-19T06:50:11;6.38;;;3.78;;
65202;SDS011;51788;45.124;38.966;2023-09-19T06:52:42;9.90;;;3.67;;
65202;SDS011;51788;45.124;38.966;2023-09-19T06:55:08;7.80;;;5.68;;
65202;SDS011;51788;45.124;38.966;2023-09-19T06:57:37;16.67;;;3.72;;
65202;SDS011;51788;45.124;38.966;2023-09-19T07:00:03;57.38;;;5.60;;
65202;SDS011;51788;45.124;38.966;2023-09-19T07:02:35;12.88;;;7.10;;
65202;SDS011;51788;45.124;38.966;2023-09-19T07:05:01;18.70;;;4.32;;
65202;SDS011;51788;45.124;38.966;2023-09-19T07:07:27;12.65;;;4.07;;
65202;SDS011;51788;45.124;38.966;2023-09-19T07:09:54;8.10;;;4.30;;
65202;SDS011;51788;45.124;38.966;2023-09-19T07:12:20;8.15;;;4.03;;
65202;SDS011;51788;45.124;38.966;2023-09-19T07:14:46;7.68;;;3.63;;
65202;SDS011;51788;45.124;38.966;2023-09-19T07:17:12;13.98;;;3.20;;
65202;SDS011;51788;45.124;38.966;2023-09-19T07:19:38;3.47;;;3.17;;
65202;SDS011;51788;45.124;38.966;2023-09-19T07:22:04;5.00;;;2.83;;
65202;SDS011;51788;45.124;38.966;2023-09-19T07:24:30;5.75;;;3.58;;
65202;SDS011;51788;45.124;38.966;2023-09-19T07:26:56;10.23;;;3.08;;
65202;SDS011;51788;45.124;38.966;2023-09-19T07:29:22;18.90;;;3.63;;
65202;SDS011;51788;45.124;38.966;2023-09-19T07:31:48;10.43;;;2.97;;
65202;SDS011;51788;45.124;38.966;2023-09-19T07:34:15;5.78;;;3.53;;
65202;SDS011;51788;45.124;38.966;2023-09-19T07:36:41;6.10;;;3.28;;
65202;SDS011;51788;45.124;38.966;2023-09-19T07:39:07;9.88;;;3.45;;
65202;SDS011;51788;45.124;38.966;2023-09-19T07:41:33;19.08;;;3.20;;
65202;SDS011;51788;45.124;38.966;2023-09-19T07:43:59;3.22;;;2.90;;
65202;SDS011;51788;45.124;38.966;2023-09-19T07:46:26;15.48;;;3.33;;
65202;SDS011;51788;45.124;38.966;2023-09-19T07:48:52;11.10;;;3.15;;
65202;SDS011;51788;45.124;38.966;2023-09-19T07:51:18;5.55;;;3.63;;
65202;SDS011;51788;45.124;38.966;2023-09-19T07:53:44;4.70;;;3.42;;
65202;SDS011;51788;45.124;38.966;2023-09-19T07:56:10;5.15;;;3.25;;
65202;SDS011;51788;45.124;38.966;2023-09-19T07:58:39;12.38;;;3.60;;
65202;SDS011;51788;45.124;38.966;2023-09-19T08:01:07;21.77;;;4.82;;
65202;SDS011;51788;45.124;38.966;2023-09-19T08:03:34;10.68;;;3.50;;
65202;SDS011;51788;45.124;38.966;2023-09-19T08:06:00;10.35;;;3.60;;
65202;SDS011;51788;45.124;38.966;2023-09-19T08:08:26;15.93;;;4.43;;
65202;SDS011;51788;45.124;38.966;2023-09-19T08:10:56;7.55;;;3.22;;
65202;SDS011;51788;45.124;38.966;2023-09-19T08:13:23;6.03;;;3.00;;
65202;SDS011;51788;45.124;38.966;2023-09-19T08:15:49;9.98;;;3.35;;
65202;SDS011;51788;45.124;38.966;2023-09-19T08:18:16;11.95;;;2.80;;
65202;SDS011;51788;45.124;38.966;2023-09-19T08:20:42;3.83;;;2.90;;
65202;SDS011;51788;45.124;38.966;2023-09-19T08:23:11;3.92;;;2.92;;
65202;SDS011;51788;45.124;38.966;2023-09-19T08:25:37;3.53;;;3.00;;
65202;SDS011;51788;45.124;38.966;2023-09-19T08:28:05;3.13;;;2.70;;
65202;SDS011;51788;45.124;38.966;2023-09-19T08:30:34;8.02;;;3.25;;
65202;SDS011;51788;45.124;38.966;2023-09-19T08:33:00;6.65;;;3.33;;
65202;SDS011;51788;45.124;38.966;2023-09-19T08:35:27;5.97;;;3.45;;
65202;SDS011;51788;45.124;38.966;2023-09-19T08:37:53;7.25;;;3.28;;
65202;SDS011;51788;45.124;38.966;2023-09-19T08:40:21;10.35;;;3.33;;
65202;SDS011;51788;45.124;38.966;2023-09-19T08:42:51;3.53;;;2.70;;
65202;SDS011;51788;45.124;38.966;2023-09-19T08:45:19;7.88;;;3.28;;
65202;SDS011;51788;45.124;38.966;2023-09-19T08:47:47;18.85;;;3.38;;
65202;SDS011;51788;45.124;38.966;2023-09-19T08:50:24;12.02;;;3.35;;
65202;SDS011;51788;45.124;38.966;2023-09-19T08:52:54;2.92;;;2.72;;
65202;SDS011;51788;45.124;38.966;2023-09-19T08:55:23;3.35;;;3.05;;
65202;SDS011;51788;45.124;38.966;2023-09-19T08:57:56;3.92;;;2.72;;
65202;SDS011;51788;45.124;38.966;2023-09-19T09:00:26;3.92;;;3.03;;
65202;SDS011;51788;45.124;38.966;2023-09-19T09:02:54;9.57;;;2.80;;
65202;SDS011;51788;45.124;38.966;2023-09-19T09:05:22;6.05;;;2.90;;
65202;SDS011;51788;45.124;38.966;2023-09-19T09:07:49;2.97;;;2.67;;
65202;SDS011;51788;45.124;38.966;2023-09-19T09:10:20;13.90;;;3.30;;
65202;SDS011;51788;45.124;38.966;2023-09-19T09:12:50;8.45;;;3.08;;
65202;SDS011;51788;45.124;38.966;2023-09-19T09:15:18;13.38;;;2.92;;
65202;SDS011;51788;45.124;38.966;2023-09-19T09:17:47;9.00;;;2.50;;
65202;SDS011;51788;45.124;38.966;2023-09-19T09:20:18;13.80;;;4.43;;
65202;SDS011;51788;45.124;38.966;2023-09-19T09:22:51;7.20;;;3.00;;
65202;SDS011;51788;45.124;38.966;2023-09-19T09:25:19;8.15;;;2.83;;
65202;SDS011;51788;45.124;38.966;2023-09-19T09:28:01;16.20;;;3.13;;
65202;SDS011;51788;45.124;38.966;2023-09-19T09:30:34;7.47;;;3.17;;
65202;SDS011;51788;45.124;38.966;2023-09-19T09:33:12;17.88;;;2.95;;
65202;SDS011;51788;45.124;38.966;2023-09-19T09:35:56;9.68;;;2.75;;
65202;SDS011;51788;45.124;38.966;2023-09-19T09:38:25;2.85;;;2.65;;
65202;SDS011;51788;45.124;38.966;2023-09-19T09:40:54;7.07;;;3.10;;
65202;SDS011;51788;45.124;38.966;2023-09-19T09:43:27;4.05;;;2.75;;
65202;SDS011;51788;45.124;38.966;2023-09-19T09:46:09;4.85;;;2.72;;
65202;SDS011;51788;45.124;38.966;2023-09-19T09:51:37;13.80;;;3.00;;
65202;SDS011;51788;45.124;38.966;2023-09-19T09:54:17;6.28;;;2.53;;
65202;SDS011;51788;45.124;38.966;2023-09-19T09:56:56;4.13;;;2.65;;
65202;SDS011;51788;45.124;38.966;2023-09-19T10:05:18;2.60;;;2.40;;
65202;SDS011;51788;45.124;38.966;2023-09-19T10:07:45;8.48;;;2.20;;
65202;SDS011;51788;45.124;38.966;2023-09-19T10:10:35;5.30;;;2.60;;
65202;SDS011;51788;45.124;38.966;2023-09-19T10:13:05;8.30;;;3.63;;
65202;SDS011;51788;45.124;38.966;2023-09-19T10:15:33;4.72;;;3.20;;
65202;SDS011;51788;45.124;38.966;2023-09-19T10:18:01;11.25;;;3.47;;
65202;SDS011;51788;45.124;38.966;2023-09-19T10:23:07;4.72;;;2.83;;
65202;SDS011;51788;45.124;38.966;2023-09-19T10:25:36;24.15;;;4.53;;
65202;SDS011;51788;45.124;38.966;2023-09-19T10:28:08;8.45;;;3.40;;
65202;SDS011;51788;45.124;38.966;2023-09-19T10:33:16;12.75;;;3.22;;
65202;SDS011;51788;45.124;38.966;2023-09-19T10:35:46;19.35;;;3.05;;
65202;SDS011;51788;45.124;38.966;2023-09-19T10:38:14;21.30;;;2.95;;
65202;SDS011;51788;45.124;38.966;2023-09-19T10:40:44;9.60;;;3.00;;
65202;SDS011;51788;45.124;38.966;2023-09-19T10:43:17;39.13;;;4.63;;
65202;SDS011;51788;45.124;38.966;2023-09-19T10:45:44;5.07;;;3.15;;
65202;SDS011;51788;45.124;38.966;2023-09-19T10:48:17;10.77;;;2.95;;
65202;SDS011;51788;45.124;38.966;2023-09-19T10:50:52;17.20;;;4.35;;
65202;SDS011;51788;45.124;38.966;2023-09-19T10:56:15;10.65;;;8.40;;
65202;SDS011;51788;45.124;38.966;2023-09-19T10:58:47;10.35;;;5.30;;
65202;SDS011;51788;45.124;38.966;2023-09-19T11:01:14;9.02;;;2.45;;
65202;SDS011;51788;45.124;38.966;2023-09-19T11:03:42;6.78;;;2.72;;
65202;SDS011;51788;45.124;38.966;2023-09-19T11:06:09;16.95;;;3.00;;
65202;SDS011;51788;45.124;38.966;2023-09-19T11:08:52;1.73;;;1.63;;
65202;SDS011;51788;45.124;38.966;2023-09-19T11:30:31;11.55;;;2.33;;
65202;SDS011;51788;45.124;38.966;2023-09-19T11:35:59;13.85;;;2.28;;
65202;SDS011;51788;45.124;38.966;2023-09-19T11:46:32;13.88;;;2.35;;
65202;SDS011;51788;45.124;38.966;2023-09-19T11:49:08;8.25;;;2.53;;
65202;SDS011;51788;45.124;38.966;2023-09-19T11:51:55;9.32;;;2.50;;
65202;SDS011;51788;45.124;38.966;2023-09-19T11:54:22;4.80;;;2.40;;
65202;SDS011;51788;45.124;38.966;2023-09-19T11:56:52;6.47;;;2.70;;
65202;SDS011;51788;45.124;38.966;2023-09-19T11:59:19;11.50;;;2.40;;
65202;SDS011;51788;45.124;38.966;2023-09-19T12:01:52;9.30;;;2.50;;
65202;SDS011;51788;45.124;38.966;2023-09-19T12:04:34;3.10;;;1.90;;
65202;SDS011;51788;45.124;38.966;2023-09-19T12:07:04;2.65;;;2.05;;
65202;SDS011;51788;45.124;38.966;2023-09-19T12:09:44;16.17;;;3.17;;
65202;SDS011;51788;45.124;38.966;2023-09-19T12:12:24;7.93;;;2.58;;
65202;SDS011;51788;45.124;38.966;2023-09-19T12:14:55;7.57;;;2.67;;
65202;SDS011;51788;45.124;38.966;2023-09-19T12:17:24;7.45;;;2.47;;
65202;SDS011;51788;45.124;38.966;2023-09-19T12:20:02;8.13;;;2.65;;
65202;SDS011;51788;45.124;38.966;2023-09-19T12:22:42;6.25;;;2.17;;
65202;SDS011;51788;45.124;38.966;2023-09-19T12:25:10;7.97;;;2.95;;
65202;SDS011;51788;45.124;38.966;2023-09-19T12:27:43;14.63;;;2.78;;
65202;SDS011;51788;45.124;38.966;2023-09-19T12:30:12;3.78;;;2.72;;
65202;SDS011;51788;45.124;38.966;2023-09-19T12:32:48;3.78;;;2.38;;
65202;SDS011;51788;45.124;38.966;2023-09-19T12:35:27;6.03;;;2.63;;
65202;SDS011;51788;45.124;38.966;2023-09-19T12:37:55;3.85;;;3.22;;
65202;SDS011;51788;45.124;38.966;2023-09-19T12:40:22;8.60;;;2.78;;
65202;SDS011;51788;45.124;38.966;2023-09-19T12:42:53;10.48;;;3.50;;
65202;SDS011;51788;45.124;38.966;2023-09-19T12:45:29;8.30;;;3.78;;
65202;SDS011;51788;45.124;38.966;2023-09-19T12:51:06;3.72;;;2.85;;
65202;SDS011;51788;45.124;38.966;2023-09-19T12:56:07;10.68;;;3.30;;
65202;SDS011;51788;45.124;38.966;2023-09-19T12:58:47;6.43;;;2.97;;
65202;SDS011;51788;45.124;38.966;2023-09-19T13:01:19;2.17;;;2.08;;
65202;SDS011;51788;45.124;38.966;2023-09-19T13:03:45;10.90;;;2.63;;
65202;SDS011;51788;45.124;38.966;2023-09-19T13:06:11;2.20;;;2.00;;
65202;SDS011;51788;45.124;38.966;2023-09-19T13:08:39;4.47;;;2.20;;
65202;SDS011;51788;45.124;38.966;2023-09-19T13:11:16;9.38;;;2.28;;
65202;SDS011;51788;45.124;38.966;2023-09-19T13:13:49;8.32;;;2.58;;
65202;SDS011;51788;45.124;38.966;2023-09-19T13:16:52;9.38;;;2.53;;
65202;SDS011;51788;45.124;38.966;2023-09-19T13:22:01;5.35;;;2.15;;
65202;SDS011;51788;45.124;38.966;2023-09-19T13:24:28;5.60;;;2.50;;
65202;SDS011;51788;45.124;38.966;2023-09-19T13:26:56;3.40;;;2.33;;
65202;SDS011;51788;45.124;38.966;2023-09-19T13:29:22;9.60;;;2.72;;
65202;SDS011;51788;45.124;38.966;2023-09-19T13:31:49;9.68;;;3.22;;
65202;SDS011;51788;45.124;38.966;2023-09-19T13:34:18;2.80;;;2.47;;
65202;SDS011;51788;45.124;38.966;2023-09-19T13:36:45;13.40;;;2.67;;
65202;SDS011;51788;45.124;38.966;2023-09-19T13:39:15;6.70;;;2.58;;
65202;SDS011;51788;45.124;38.966;2023-09-19T13:41:42;2.50;;;2.13;;
65202;SDS011;51788;45.124;38.966;2023-09-19T13:44:10;15.18;;;3.13;;
65202;SDS011;51788;45.124;38.966;2023-09-19T13:46:36;4.55;;;2.67;;
65202;SDS011;51788;45.124;38.966;2023-09-19T13:49:02;3.88;;;2.30;;
65202;SDS011;51788;45.124;38.966;2023-09-19T13:51:29;6.30;;;2.25;;
65202;SDS011;51788;45.124;38.966;2023-09-19T13:53:56;4.80;;;2.35;;
65202;SDS011;51788;45.124;38.966;2023-09-19T13:56:22;2.75;;;2.55;;
65202;SDS011;51788;45.124;38.966;2023-09-19T13:58:49;3.03;;;2.63;;
65202;SDS011;51788;45.124;38.966;2023-09-19T14:01:15;7.97;;;2.53;;
65202;SDS011;51788;45.124;38.966;2023-09-19T14:03:41;8.48;;;2.28;;
65202;SDS011;51788;45.124;38.966;2023-09-19T14:06:12;14.40;;;2.75;;
65202;SDS011;51788;45.124;38.966;2023-09-19T14:08:39;11.65;;;2.63;;
65202;SDS011;51788;45.124;38.966;2023-09-19T14:11:08;8.20;;;2.95;;
65202;SDS011;51788;45.124;38.966;2023-09-19T14:13:34;15.68;;;2.67;;
65202;SDS011;51788;45.124;38.966;2023-09-19T14:16:03;10.30;;;3.67;;
65202;SDS011;51788;45.124;38.966;2023-09-19T14:18:30;17.02;;;3.55;;
65202;SDS011;51788;45.124;38.966;2023-09-19T14:20:57;10.57;;;3.13;;
65202;SDS011;51788;45.124;38.966;2023-09-19T14:23:23;11.35;;;3.17;;
65202;SDS011;51788;45.124;38.966;2023-09-19T14:25:52;17.70;;;2.88;;
65202;SDS011;51788;45.124;38.966;2023-09-19T14:28:19;5.75;;;2.50;;
65202;SDS011;51788;45.124;38.966;2023-09-19T14:30:45;5.63;;;2.30;;
65202;SDS011;51788;45.124;38.966;2023-09-19T14:33:11;9.85;;;2.90;;
65202;SDS011;51788;45.124;38.966;2023-09-19T14:35:37;11.00;;;2.75;;
65202;SDS011;51788;45.124;38.966;2023-09-19T14:38:03;11.07;;;3.88;;
65202;SDS011;51788;45.124;38.966;2023-09-19T14:40:29;15.48;;;3.72;;
65202;SDS011;51788;45.124;38.966;2023-09-19T14:42:56;8.27;;;3.15;;
65202;SDS011;51788;45.124;38.966;2023-09-19T14:45:22;14.10;;;2.97;;
65202;SDS011;51788;45.124;38.966;2023-09-19T14:47:50;22.63;;;2.97;;
65202;SDS011;51788;45.124;38.966;2023-09-19T14:50:20;13.15;;;3.10;;
65202;SDS011;51788;45.124;38.966;2023-09-19T14:52:47;6.45;;;2.90;;
65202;SDS011;51788;45.124;38.966;2023-09-19T14:55:15;14.07;;;3.13;;
65202;SDS011;51788;45.124;38.966;2023-09-19T14:57:42;27.48;;;4.70;;
65202;SDS011;51788;45.124;38.966;2023-09-19T15:00:12;24.02;;;4.25;;
65202;SDS011;51788;45.124;38.966;2023-09-19T15:02:39;23.08;;;4.10;;
65202;SDS011;51788;45.124;38.966;2023-09-19T15:05:06;16.50;;;4.38;;
65202;SDS011;51788;45.124;38.966;2023-09-19T15:07:36;20.95;;;4.20;;
65202;SDS011;51788;45.124;38.966;2023-09-19T15:10:04;33.08;;;4.57;;
65202;SDS011;51788;45.124;38.966;2023-09-19T15:12:32;8.65;;;4.78;;
65202;SDS011;51788;45.124;38.966;2023-09-19T15:14:58;24.50;;;4.85;;
65202;SDS011;51788;45.124;38.966;2023-09-19T15:17:24;12.25;;;3.92;;
65202;SDS011;51788;45.124;38.966;2023-09-19T15:19:51;30.25;;;6.05;;
65202;SDS011;51788;45.124;38.966;2023-09-19T15:22:17;16.98;;;3.67;;
65202;SDS011;51788;45.124;38.966;2023-09-19T15:24:43;179.65;;;12.05;;
65202;SDS011;51788;45.124;38.966;2023-09-19T15:27:09;26.48;;;4.13;;
65202;SDS011;51788;45.124;38.966;2023-09-19T15:29:35;13.52;;;4.10;;
65202;SDS011;51788;45.124;38.966;2023-09-19T15:32:01;19.05;;;4.43;;
65202;SDS011;51788;45.124;38.966;2023-09-19T15:34:28;27.30;;;4.90;;
65202;SDS011;51788;45.124;38.966;2023-09-19T15:36:55;37.28;;;4.75;;
65202;SDS011;51788;45.124;38.966;2023-09-19T15:39:21;14.10;;;4.40;;
65202;SDS011;51788;45.124;38.966;2023-09-19T15:41:50;49.85;;;6.13;;
65202;SDS011;51788;45.124;38.966;2023-09-19T15:44:17;36.92;;;5.72;;
65202;SDS011;51788;45.124;38.966;2023-09-19T15:46:44;14.20;;;5.35;;
65202;SDS011;51788;45.124;38.966;2023-09-19T15:49:12;26.88;;;5.13;;
65202;SDS011;51788;45.124;38.966;2023-09-19T15:51:38;23.85;;;5.30;;